createdAt,value
2016-07-31T00:00:04.211Z,49.12
2016-07-31T00:01:04.215Z,48.93
2016-07-31T00:02:04.225Z,49.41
2016-07-31T00:03:04.229Z,49.44
2016-07-31T00:04:05.243Z,49.12
2016-07-31T00:05:04.245Z,49.34
2016-07-31T00:06:05.009Z,48.83
2016-07-31T00:07:04.961Z,49.24
2016-07-31T00:08:04.983Z,49.32
2016-07-31T00:09:04.268Z,49.22
2016-07-31T00:10:04.985Z,49.32
2016-07-31T00:11:04.286Z,49.32
2016-07-31T00:12:05.001Z,49.22
2016-07-31T00:13:04.348Z,49.34
2016-07-31T00:14:04.318Z,49.02
2016-07-31T00:15:05.872Z,49.41
2016-07-31T00:16:05.037Z,49.41
2016-07-31T00:17:05.533Z,49.32
2016-07-31T00:18:05.039Z,49.05
2016-07-31T00:19:05.047Z,49.02
2016-07-31T00:20:04.345Z,49.32
2016-07-31T00:21:04.353Z,48.93
2016-07-31T00:22:05.065Z,49.32
2016-07-31T00:23:05.071Z,48.95
2016-07-31T00:24:05.081Z,49.22
2016-07-31T00:25:05.097Z,49.32
2016-07-31T00:26:04.386Z,49.22
2016-07-31T00:27:05.099Z,49.15
2016-07-31T00:28:05.957Z,49.02
2016-07-31T00:29:04.408Z,48.93
2016-07-31T00:30:04.416Z,48.64
2016-07-31T00:31:05.126Z,49.12
2016-07-31T00:32:04.430Z,48.93
2016-07-31T00:33:04.435Z,48.74
2016-07-31T00:34:05.154Z,49.12
2016-07-31T00:35:04.449Z,48.64
2016-07-31T00:36:05.161Z,49.02
2016-07-31T00:37:04.459Z,49.32
2016-07-31T00:38:04.468Z,49.22
2016-07-31T00:39:05.576Z,49.02
2016-07-31T00:40:04.479Z,48.74
2016-07-31T00:41:05.196Z,49.02
2016-07-31T00:42:05.202Z,48.74
2016-07-31T00:43:05.264Z,49.02
2016-07-31T00:44:05.215Z,49.02
2016-07-31T00:45:04.513Z,49.02
2016-07-31T00:46:05.229Z,49.51
2016-07-31T00:47:05.233Z,48.83
2016-07-31T00:48:05.240Z,49.41
2016-07-31T00:49:05.248Z,49.32
2016-07-31T00:50:05.891Z,49.34
2016-07-31T00:51:04.552Z,49.61
2016-07-31T00:52:04.558Z,49.41
2016-07-31T00:53:04.570Z,49.22
2016-07-31T00:54:05.282Z,49.02
2016-07-31T00:55:04.585Z,49.32
2016-07-31T00:56:05.297Z,49.02
2016-07-31T00:57:05.302Z,48.93
2016-07-31T00:58:04.617Z,49.22
2016-07-31T00:59:04.666Z,49.41
2016-07-31T01:00:05.322Z,48.83
2016-07-31T01:01:06.305Z,49.22
2016-07-31T01:02:05.335Z,49.24
2016-07-31T01:03:04.637Z,49.41
2016-07-31T01:04:05.350Z,49.41
2016-07-31T01:05:04.650Z,49.41
2016-07-31T01:06:04.660Z,49.32
2016-07-31T01:07:04.713Z,48.83
2016-07-31T01:08:05.379Z,49.34
2016-07-31T01:09:05.384Z,49.32
2016-07-31T01:10:05.598Z,49.41
2016-07-31T01:11:05.397Z,48.93
2016-07-31T01:12:04.698Z,49.12
2016-07-31T01:13:04.719Z,48.74
2016-07-31T01:14:04.765Z,48.74
2016-07-31T01:15:05.424Z,49.32
2016-07-31T01:16:05.431Z,49.12
2016-07-31T01:17:05.442Z,48.64
2016-07-31T01:18:05.445Z,48.93
2016-07-31T01:19:05.452Z,49.12
2016-07-31T01:20:04.752Z,48.93
2016-07-31T01:21:05.157Z,49.32
2016-07-31T01:22:04.769Z,48.83
2016-07-31T01:23:04.883Z,48.64
2016-07-31T01:24:05.486Z,48.74
2016-07-31T01:25:04.787Z,48.83
2016-07-31T01:26:04.795Z,49.7
2016-07-31T01:27:05.504Z,49.02
2016-07-31T01:28:04.821Z,49.8
2016-07-31T01:29:04.811Z,48.74
2016-07-31T01:30:05.525Z,48.93
2016-07-31T01:31:05.532Z,49.12
2016-07-31T01:32:06.640Z,49.02
2016-07-31T01:33:05.543Z,49.12
2016-07-31T01:34:05.597Z,49.02
2016-07-31T01:35:05.559Z,49.22
2016-07-31T01:36:04.858Z,48.93
2016-07-31T01:37:05.575Z,48.83
2016-07-31T01:38:05.580Z,49.7
2016-07-31T01:39:05.028Z,48.93
2016-07-31T01:40:05.592Z,49.8
2016-07-31T01:41:05.600Z,49.02
2016-07-31T01:42:04.904Z,49.32
2016-07-31T01:44:05.620Z,49.12
2016-07-31T01:45:05.679Z,49.12
2016-07-31T01:46:04.926Z,49.61
2016-07-31T01:47:05.641Z,48.74
2016-07-31T01:48:05.647Z,48.93
2016-07-31T01:49:04.944Z,48.93
2016-07-31T01:50:05.661Z,48.74
2016-07-31T01:51:05.674Z,49.22
2016-07-31T01:52:04.969Z,48.93
2016-07-31T01:53:05.680Z,49.8
2016-07-31T01:54:06.238Z,49.12
2016-07-31T01:55:04.985Z,49.8
2016-07-31T01:56:06.001Z,49.12
2016-07-31T01:57:05.706Z,49.02
2016-07-31T01:58:05.018Z,49.7
2016-07-31T01:59:05.014Z,49.32
2016-07-31T02:00:05.731Z,49.32
2016-07-31T02:01:05.738Z,49.02
2016-07-31T02:02:05.035Z,48.93
2016-07-31T02:03:05.138Z,48.93
2016-07-31T02:04:05.045Z,49.32
2016-07-31T02:05:05.054Z,48.93
2016-07-31T02:06:05.058Z,48.93
2016-07-31T02:07:06.726Z,49.02
2016-07-31T02:08:05.831Z,48.93
2016-07-31T02:09:05.790Z,48.93
2016-07-31T02:10:05.793Z,48.93
2016-07-31T02:11:05.801Z,49.02
2016-07-31T02:12:05.102Z,48.93
2016-07-31T02:13:05.816Z,48.83
2016-07-31T02:14:06.424Z,48.74
2016-07-31T02:15:05.831Z,49.61
2016-07-31T02:16:05.378Z,49.02
2016-07-31T02:17:05.135Z,49.12
2016-07-31T02:18:05.849Z,49.12
2016-07-31T02:19:05.147Z,48.93
2016-07-31T02:20:05.153Z,49.61
2016-07-31T02:21:05.867Z,49.02
2016-07-31T02:22:05.877Z,49.12
2016-07-31T02:23:05.173Z,49.02
2016-07-31T02:24:05.889Z,49.02
2016-07-31T02:25:06.190Z,49.22
2016-07-31T02:26:05.903Z,48.83
2016-07-31T02:27:05.907Z,48.93
2016-07-31T02:28:05.917Z,49.32
2016-07-31T02:29:05.215Z,49.8
2016-07-31T02:30:05.979Z,49.22
2016-07-31T02:31:05.936Z,49.12
2016-07-31T02:32:05.234Z,49.22
2016-07-31T02:33:05.243Z,49.41
2016-07-31T02:34:05.246Z,49.22
2016-07-31T02:35:05.961Z,49.02
2016-07-31T02:36:07.096Z,49.02
2016-07-31T02:37:05.976Z,49.12
2016-07-31T02:38:06.175Z,49.02
2016-07-31T02:39:05.986Z,49.22
2016-07-31T02:40:05.994Z,49.02
2016-07-31T02:41:05.299Z,49.32
2016-07-31T02:42:06.057Z,49.02
2016-07-31T02:43:05.308Z,49.12
2016-07-31T02:44:05.313Z,49.12
2016-07-31T02:45:06.028Z,49.12
2016-07-31T02:46:05.326Z,49.22
2016-07-31T02:47:06.601Z,49.12
2016-07-31T02:48:05.340Z,49.02
2016-07-31T02:49:06.405Z,49.22
2016-07-31T02:50:05.351Z,49.02
2016-07-31T02:51:06.066Z,49.12
2016-07-31T02:52:06.074Z,49.02
2016-07-31T02:53:05.374Z,49.02
2016-07-31T02:54:05.382Z,49.32
2016-07-31T02:55:06.096Z,49.12
2016-07-31T02:56:05.393Z,49.22
2016-07-31T02:57:06.104Z,49.12
2016-07-31T02:58:05.407Z,49.02
2016-07-31T02:59:05.414Z,49.02
2016-07-31T03:00:06.826Z,49.12
2016-07-31T03:01:05.427Z,49.32
2016-07-31T03:02:06.140Z,49.51
2016-07-31T03:03:05.439Z,49.02
2016-07-31T03:04:05.449Z,49.22
2016-07-31T03:05:05.456Z,49.22
2016-07-31T03:06:05.462Z,49.61
2016-07-31T03:07:06.174Z,49.22
2016-07-31T03:08:05.525Z,49.9
2016-07-31T03:09:05.481Z,49.12
2016-07-31T03:10:05.487Z,49.22
2016-07-31T03:11:07.154Z,49.12
2016-07-31T03:12:06.214Z,49.22
2016-07-31T03:13:06.215Z,49.12
2016-07-31T03:14:06.223Z,49.02
2016-07-31T03:15:05.520Z,49.02
2016-07-31T03:16:05.530Z,48.93
2016-07-31T03:17:05.537Z,49.22
2016-07-31T03:18:05.543Z,49.8
2016-07-31T03:19:06.255Z,49.02
2016-07-31T03:20:06.262Z,49.61
2016-07-31T03:21:06.264Z,49.02
2016-07-31T03:22:05.566Z,49.02
2016-07-31T03:23:06.283Z,49.12
2016-07-31T03:24:06.287Z,49.02
2016-07-31T03:25:05.587Z,49.12
2016-07-31T03:26:05.594Z,49.12
2016-07-31T03:27:05.597Z,49.12
2016-07-31T03:28:05.605Z,49.22
2016-07-31T03:29:05.614Z,49.12
2016-07-31T03:30:06.325Z,49.12
2016-07-31T03:31:05.930Z,49.02
2016-07-31T03:32:06.340Z,49.12
2016-07-31T03:33:05.640Z,49.41
2016-07-31T03:34:06.357Z,49.7
2016-07-31T03:35:06.359Z,49.12
2016-07-31T03:36:05.660Z,49.8
2016-07-31T03:37:06.374Z,49.32
2016-07-31T03:38:05.670Z,49.12
2016-07-31T03:39:05.676Z,48.93
2016-07-31T03:40:06.394Z,49.51
2016-07-31T03:41:05.688Z,49.22
2016-07-31T03:42:06.406Z,48.83
2016-07-31T03:43:06.413Z,49.12
2016-07-31T03:44:06.417Z,48.83
2016-07-31T03:45:06.427Z,49.02
2016-07-31T03:46:05.722Z,49.12
2016-07-31T03:47:05.728Z,49.61
2016-07-31T03:48:05.737Z,49.02
2016-07-31T03:49:05.751Z,49.41
2016-07-31T03:50:05.749Z,49.22
2016-07-31T03:51:06.469Z,49.32
2016-07-31T03:52:06.475Z,49.61
2016-07-31T03:53:06.726Z,49.12
2016-07-31T03:54:05.789Z,49.22
2016-07-31T03:55:05.783Z,49.02
2016-07-31T03:56:05.796Z,49.02
2016-07-31T03:57:05.797Z,49.22
2016-07-31T03:58:06.510Z,49.12
2016-07-31T03:59:06.516Z,48.83
2016-07-31T04:00:06.525Z,48.93
2016-07-31T04:01:06.536Z,49.61
2016-07-31T04:02:06.539Z,49.41
2016-07-31T04:03:06.543Z,49.51
2016-07-31T04:04:06.949Z,49.02
2016-07-31T04:05:05.849Z,49.51
2016-07-31T04:06:05.905Z,49.32
2016-07-31T04:07:05.866Z,49.32
2016-07-31T04:08:06.574Z,49.51
2016-07-31T04:09:05.876Z,49.51
2016-07-31T04:10:05.885Z,49.41
2016-07-31T04:11:06.191Z,49.51
2016-07-31T04:12:05.951Z,49.41
2016-07-31T04:13:05.956Z,49.51
2016-07-31T04:14:05.911Z,49.9
2016-07-31T04:15:07.475Z,49.51
2016-07-31T04:16:06.636Z,49.9
2016-07-31T04:17:07.034Z,49.7
2016-07-31T04:18:06.644Z,49.99
2016-07-31T04:19:06.650Z,49.51
2016-07-31T04:20:05.951Z,49.22
2016-07-31T04:21:05.958Z,49.61
2016-07-31T04:22:05.970Z,49.9
2016-07-31T04:23:05.971Z,49.41
2016-07-31T04:24:05.978Z,49.12
2016-07-31T04:25:05.984Z,49.61
2016-07-31T04:26:07.747Z,49.99
2016-07-31T04:27:05.998Z,49.8
2016-07-31T04:28:07.368Z,49.9
2016-07-31T04:29:06.014Z,49.9
2016-07-31T04:30:06.727Z,49.99
2016-07-31T04:31:06.025Z,49.9
2016-07-31T04:32:06.080Z,49.9
2016-07-31T04:33:06.038Z,49.61
2016-07-31T04:34:06.043Z,49.9
2016-07-31T04:35:06.052Z,49.9
2016-07-31T04:36:06.767Z,49.7
2016-07-31T04:37:06.064Z,49.22
2016-07-31T04:38:06.777Z,49.9
2016-07-31T04:39:06.986Z,49.51
2016-07-31T04:40:06.793Z,49.9
2016-07-31T04:41:06.798Z,49.9
2016-07-31T04:42:06.095Z,49.8
2016-07-31T04:43:06.811Z,49.61
2016-07-31T04:44:06.110Z,49.8
2016-07-31T04:45:06.825Z,49.9
2016-07-31T04:46:06.124Z,49.9
2016-07-31T04:47:06.840Z,49.8
2016-07-31T04:48:06.846Z,49.8
2016-07-31T04:49:06.850Z,49.8
2016-07-31T04:50:07.245Z,49.9
2016-07-31T04:51:06.865Z,49.9
2016-07-31T04:52:06.873Z,49.9
2016-07-31T04:53:06.172Z,49.99
2016-07-31T04:54:06.934Z,49.9
2016-07-31T04:55:06.186Z,49.32
2016-07-31T04:56:06.192Z,50.09
2016-07-31T04:57:06.918Z,49.99
2016-07-31T04:58:06.918Z,49.9
2016-07-31T04:59:06.918Z,49.32
2016-07-31T05:00:06.926Z,49.41
2016-07-31T05:01:06.225Z,49.51
2016-07-31T05:02:06.943Z,50.09
2016-07-31T05:03:06.238Z,49.51
2016-07-31T05:04:06.954Z,49.41
2016-07-31T05:05:06.961Z,49.51
2016-07-31T05:06:06.967Z,49.51
2016-07-31T05:07:06.268Z,49.51
2016-07-31T05:08:06.978Z,49.12
2016-07-31T05:09:06.279Z,49.02
2016-07-31T05:10:07.204Z,48.93
2016-07-31T05:11:06.293Z,49.12
2016-07-31T05:12:07.007Z,48.93
2016-07-31T05:13:07.063Z,49.22
2016-07-31T05:14:07.021Z,49.51
2016-07-31T05:15:06.320Z,49.51
2016-07-31T05:16:07.035Z,49.51
2016-07-31T05:17:07.044Z,49.41
2016-07-31T05:18:07.051Z,49.41
2016-07-31T05:19:06.352Z,49.32
2016-07-31T05:20:06.354Z,49.22
2016-07-31T05:21:07.769Z,49.12
2016-07-31T05:22:07.074Z,49.51
2016-07-31T05:23:06.774Z,49.51
2016-07-31T05:24:07.087Z,49.9
2016-07-31T05:25:06.387Z,49.9
2016-07-31T05:26:06.396Z,49.9
2016-07-31T05:27:06.403Z,49.9
2016-07-31T05:28:07.116Z,49.41
2016-07-31T05:30:06.424Z,49.7
2016-07-31T05:31:07.135Z,49.9
2016-07-31T05:32:08.196Z,49.51
2016-07-31T05:33:06.448Z,49.51
2016-07-31T05:34:07.157Z,49.12
2016-07-31T05:35:06.461Z,49.51
2016-07-31T05:36:07.171Z,49.99
2016-07-31T05:37:06.518Z,49.9
2016-07-31T05:38:06.474Z,49.51
2016-07-31T05:39:07.191Z,49.8
2016-07-31T05:40:07.197Z,49.8
2016-07-31T05:41:07.201Z,49.8
2016-07-31T05:42:07.212Z,49.9
2016-07-31T05:43:07.944Z,49.51
2016-07-31T05:44:06.515Z,49.7
2016-07-31T05:45:07.680Z,49.7
2016-07-31T05:46:07.237Z,49.7
2016-07-31T05:47:07.245Z,49.8
2016-07-31T05:48:06.543Z,49.61
2016-07-31T05:49:07.256Z,49.51
2016-07-31T05:50:06.558Z,49.7
2016-07-31T05:51:06.563Z,49.8
2016-07-31T05:52:07.276Z,49.51
2016-07-31T05:53:06.576Z,49.61
2016-07-31T05:54:06.583Z,49.7
2016-07-31T05:55:07.296Z,49.7
2016-07-31T05:56:06.596Z,49.7
2016-07-31T05:57:07.312Z,49.51
2016-07-31T05:58:07.316Z,49.61
2016-07-31T05:59:06.620Z,49.51
2016-07-31T06:00:06.623Z,49.7
2016-07-31T06:01:07.336Z,49.61
2016-07-31T06:02:07.344Z,49.61
2016-07-31T06:03:06.648Z,49.7
2016-07-31T06:04:07.359Z,49.7
2016-07-31T06:05:06.664Z,49.7
2016-07-31T06:06:06.667Z,49.7
2016-07-31T06:07:08.379Z,49.8
2016-07-31T06:08:07.392Z,49.8
2016-07-31T06:09:06.687Z,49.7
2016-07-31T06:10:07.398Z,49.61
2016-07-31T06:11:06.699Z,49.9
2016-07-31T06:12:07.411Z,49.61
2016-07-31T06:13:06.720Z,49.9
2016-07-31T06:14:07.425Z,49.61
2016-07-31T06:15:06.777Z,49.8
2016-07-31T06:16:06.983Z,49.8
2016-07-31T06:17:07.449Z,49.7
2016-07-31T06:18:07.453Z,49.7
2016-07-31T06:19:07.461Z,49.7
2016-07-31T06:20:07.520Z,49.7
2016-07-31T06:21:07.475Z,49.8
2016-07-31T06:22:06.775Z,49.7
2016-07-31T06:23:06.783Z,49.9
2016-07-31T06:24:07.495Z,49.7
2016-07-31T06:25:21.674Z,49.61
2016-07-31T06:26:07.510Z,49.7
2016-07-31T06:27:07.614Z,49.7
2016-07-31T06:28:06.814Z,49.8
2016-07-31T06:29:06.821Z,49.7
2016-07-31T06:30:07.539Z,49.61
2016-07-31T06:31:07.541Z,49.8
2016-07-31T06:32:07.554Z,49.8
2016-07-31T06:33:07.562Z,49.8
2016-07-31T06:34:07.561Z,49.8
2016-07-31T06:35:06.873Z,49.61
2016-07-31T06:36:06.867Z,49.7
2016-07-31T06:37:07.583Z,49.51
2016-07-31T06:38:06.885Z,49.41
2016-07-31T06:39:06.913Z,49.51
2016-07-31T06:40:07.852Z,49.41
2016-07-31T06:41:06.906Z,49.7
2016-07-31T06:42:06.911Z,49.41
2016-07-31T06:43:06.967Z,49.51
2016-07-31T06:44:07.630Z,49.51
2016-07-31T06:45:06.935Z,49.51
2016-07-31T06:46:07.642Z,49.8
2016-07-31T06:47:07.651Z,49.41
2016-07-31T06:48:06.950Z,49.51
2016-07-31T06:49:08.763Z,49.51
2016-07-31T06:50:07.672Z,49.51
2016-07-31T06:51:08.328Z,49.41
2016-07-31T06:52:07.684Z,49.51
2016-07-31T06:53:07.690Z,49.51
2016-07-31T06:54:07.698Z,49.61
2016-07-31T06:55:07.706Z,49.51
2016-07-31T06:56:07.007Z,49.32
2016-07-31T06:57:07.012Z,49.8
2016-07-31T06:58:07.728Z,49.32
2016-07-31T06:59:07.732Z,49.41
2016-07-31T07:00:07.739Z,49.41
2016-07-31T07:01:07.796Z,49.51
2016-07-31T07:02:08.857Z,49.8
2016-07-31T07:03:07.757Z,49.41
2016-07-31T07:04:07.056Z,49.41
2016-07-31T07:05:07.773Z,49.41
2016-07-31T07:06:07.779Z,49.51
2016-07-31T07:07:07.079Z,49.51
2016-07-31T07:08:07.090Z,49.51
2016-07-31T07:09:07.802Z,49.8
2016-07-31T07:10:07.805Z,49.61
2016-07-31T07:11:07.308Z,49.61
2016-07-31T07:12:07.821Z,49.8
2016-07-31T07:13:07.121Z,49.7
2016-07-31T07:14:07.128Z,49.7
2016-07-31T07:15:07.841Z,49.61
2016-07-31T07:16:07.189Z,49.61
2016-07-31T07:17:07.153Z,49.7
2016-07-31T07:18:07.155Z,49.8
2016-07-31T07:19:07.162Z,49.9
2016-07-31T07:20:07.219Z,49.51
2016-07-31T07:21:07.882Z,49.9
2016-07-31T07:22:07.780Z,49.9
2016-07-31T07:23:07.896Z,49.51
2016-07-31T07:24:07.905Z,49.9
2016-07-31T07:25:07.203Z,49.8
2016-07-31T07:26:07.917Z,49.61
2016-07-31T07:27:07.216Z,49.8
2016-07-31T07:28:07.929Z,49.9
2016-07-31T07:29:07.227Z,49.7
2016-07-31T07:30:07.236Z,49.32
2016-07-31T07:31:07.950Z,49.12
2016-07-31T07:32:07.955Z,49.12
2016-07-31T07:33:08.436Z,48.93
2016-07-31T07:34:07.263Z,49.22
2016-07-31T07:35:08.273Z,49.02
2016-07-31T07:36:07.986Z,49.12
2016-07-31T07:37:07.283Z,49.02
2016-07-31T07:38:07.998Z,49.02
2016-07-31T07:39:08.007Z,49.41
2016-07-31T07:40:08.011Z,49.05
2016-07-31T07:41:08.018Z,48.93
2016-07-31T07:42:07.369Z,48.74
2016-07-31T07:43:07.327Z,48.93
2016-07-31T07:44:07.331Z,49.22
2016-07-31T07:45:08.045Z,49.51
2016-07-31T07:46:09.007Z,48.95
2016-07-31T07:47:07.353Z,48.95
2016-07-31T07:48:08.115Z,49.32
2016-07-31T07:49:08.075Z,49.22
2016-07-31T07:50:08.082Z,49.41
2016-07-31T07:51:08.089Z,49.7
2016-07-31T07:52:07.386Z,49.9
2016-07-31T07:53:08.851Z,49.8
2016-07-31T07:54:08.109Z,49.61
2016-07-31T07:55:08.111Z,49.8
2016-07-31T07:56:08.123Z,49.61
2016-07-31T07:57:08.136Z,49.8
2016-07-31T07:58:07.479Z,49.8
2016-07-31T07:59:08.155Z,49.51
2016-07-31T08:00:08.154Z,49.9
2016-07-31T08:01:08.156Z,49.7
2016-07-31T08:02:07.458Z,50.09
2016-07-31T08:03:08.178Z,49.61
2016-07-31T08:04:08.473Z,49.61
2016-07-31T08:05:08.185Z,49.8
2016-07-31T08:06:08.183Z,49.51
2016-07-31T08:07:08.200Z,49.12
2016-07-31T08:08:07.501Z,49.32
2016-07-31T08:09:07.501Z,49.51
2016-07-31T08:10:07.515Z,49.02
2016-07-31T08:11:08.227Z,49.12
2016-07-31T08:12:08.282Z,49.02
2016-07-31T08:13:08.243Z,49.61
2016-07-31T08:14:08.256Z,49.02
2016-07-31T08:15:07.549Z,49.12
2016-07-31T08:16:07.606Z,49.22
2016-07-31T08:17:08.967Z,49.22
2016-07-31T08:18:08.276Z,49.12
2016-07-31T08:19:08.286Z,49.8
2016-07-31T08:20:07.584Z,49.12
2016-07-31T08:21:07.590Z,49.02
2016-07-31T08:22:07.599Z,48.93
2016-07-31T08:23:08.362Z,48.74
2016-07-31T08:24:08.316Z,48.74
2016-07-31T08:25:07.618Z,49.12
2016-07-31T08:26:08.334Z,49.22
2016-07-31T08:27:08.339Z,49.02
2016-07-31T08:28:08.346Z,48.83
2016-07-31T08:29:07.647Z,49.12
2016-07-31T08:30:07.653Z,48.95
2016-07-31T08:31:07.660Z,49.12
2016-07-31T08:32:07.664Z,49.12
2016-07-31T08:33:08.380Z,48.93
2016-07-31T08:34:08.389Z,48.83
2016-07-31T08:35:07.687Z,49.12
2016-07-31T08:36:08.401Z,49.12
2016-07-31T08:37:08.155Z,49.12
2016-07-31T08:38:07.709Z,48.83
2016-07-31T08:39:08.422Z,49.02
2016-07-31T08:40:08.431Z,48.93
2016-07-31T08:41:08.439Z,49.22
2016-07-31T08:42:08.445Z,48.64
2016-07-31T08:43:07.744Z,49.12
2016-07-31T08:44:08.461Z,48.93
2016-07-31T08:45:07.757Z,48.64
2016-07-31T08:46:08.469Z,48.64
2016-07-31T08:47:08.478Z,48.74
2016-07-31T08:48:08.537Z,49.22
2016-07-31T08:49:07.785Z,48.83
2016-07-31T08:50:07.790Z,49.22
2016-07-31T08:51:08.505Z,48.83
2016-07-31T08:52:08.511Z,48.64
2016-07-31T08:53:07.818Z,49.32
2016-07-31T08:54:08.525Z,49.32
2016-07-31T08:55:07.825Z,49.02
2016-07-31T08:56:07.835Z,48.83
2016-07-31T08:57:08.547Z,49.22
2016-07-31T08:58:08.555Z,49.12
2016-07-31T08:59:09.413Z,49.44
2016-07-31T09:00:07.859Z,49.41
2016-07-31T09:01:08.269Z,48.83
2016-07-31T09:02:08.583Z,49.41
2016-07-31T09:03:07.884Z,49.41
2016-07-31T09:04:08.598Z,49.32
2016-07-31T09:05:07.894Z,49.05
2016-07-31T09:06:08.612Z,49.51
2016-07-31T09:07:08.621Z,48.74
2016-07-31T09:08:07.928Z,48.54
2016-07-31T09:09:07.924Z,49.02
2016-07-31T09:10:09.655Z,48.93
2016-07-31T09:11:08.646Z,48.74
2016-07-31T09:12:08.546Z,48.64
2016-07-31T09:13:07.952Z,48.93
2016-07-31T09:14:08.668Z,48.76
2016-07-31T09:15:08.674Z,48.18
2016-07-31T09:16:08.025Z,48.54
2016-07-31T09:17:07.980Z,48.35
2016-07-31T09:18:07.988Z,48.44
2016-07-31T09:19:08.046Z,48.64
2016-07-31T09:20:08.001Z,48.74
2016-07-31T09:21:08.010Z,48.54
2016-07-31T09:22:08.729Z,48.54
2016-07-31T09:23:09.633Z,48.64
2016-07-31T09:24:08.746Z,48.35
2016-07-31T09:25:08.042Z,48.66
2016-07-31T09:26:08.800Z,48.27
2016-07-31T09:27:08.764Z,48.15
2016-07-31T09:28:08.765Z,48.27
2016-07-31T09:29:08.770Z,48.27
2016-07-31T09:30:08.080Z,48.25
2016-07-31T09:31:08.081Z,48.15
2016-07-31T09:32:08.793Z,48.18
2016-07-31T09:33:08.799Z,48.57
2016-07-31T09:34:09.311Z,47.98
2016-07-31T09:35:08.816Z,48.47
2016-07-31T09:36:08.117Z,48.57
2016-07-31T09:37:08.831Z,48.08
2016-07-31T09:38:08.916Z,47.98
2016-07-31T09:39:08.846Z,48.08
2016-07-31T09:40:08.856Z,47.5
2016-07-31T09:41:08.859Z,48.44
2016-07-31T09:42:08.158Z,48.25
2016-07-31T09:43:08.167Z,48.18
2016-07-31T09:44:08.171Z,48.18
2016-07-31T09:45:08.182Z,47.4
2016-07-31T09:46:08.893Z,47.6
2016-07-31T09:47:08.195Z,47.4
2016-07-31T09:48:08.908Z,47.3
2016-07-31T09:49:08.924Z,47.2
2016-07-31T09:50:08.214Z,47.11
2016-07-31T09:51:08.929Z,47.11
2016-07-31T09:52:08.227Z,47.11
2016-07-31T09:53:08.236Z,47.02
2016-07-31T09:54:09.300Z,47.11
2016-07-31T09:55:08.954Z,46.92
2016-07-31T09:56:08.963Z,46.82
2016-07-31T09:57:08.264Z,46.92
2016-07-31T09:58:08.975Z,46.82
2016-07-31T09:59:08.281Z,46.92
2016-07-31T10:01:08.997Z,46.62
2016-07-31T10:02:08.296Z,47.11
2016-07-31T10:03:08.316Z,46.43
2016-07-31T10:04:09.016Z,46.55
2016-07-31T10:05:10.128Z,46.55
2016-07-31T10:06:09.032Z,46.04
2016-07-31T10:07:09.084Z,45.75
2016-07-31T10:08:08.341Z,45.75
2016-07-31T10:09:08.348Z,45.85
2016-07-31T10:10:09.061Z,45.65
2016-07-31T10:11:08.409Z,45.65
2016-07-31T10:12:09.078Z,45.65
2016-07-31T10:13:09.088Z,45.75
2016-07-31T10:14:09.089Z,45.75
2016-07-31T10:15:08.389Z,45.75
2016-07-31T10:16:09.836Z,45.37
2016-07-31T10:17:08.402Z,45.37
2016-07-31T10:18:09.717Z,45.56
2016-07-31T10:19:08.518Z,46.14
2016-07-31T10:20:08.423Z,46.04
2016-07-31T10:21:08.441Z,45.95
2016-07-31T10:22:09.145Z,45.85
2016-07-31T10:23:08.444Z,46.04
2016-07-31T10:24:08.453Z,45.85
2016-07-31T10:25:08.458Z,46.14
2016-07-31T10:26:09.175Z,46.72
2016-07-31T10:27:08.622Z,46.62
2016-07-31T10:28:09.187Z,46.53
2016-07-31T10:29:09.194Z,46.43
2016-07-31T10:30:09.203Z,46.62
2016-07-31T10:31:08.500Z,46.33
2016-07-31T10:32:09.210Z,46.33
2016-07-31T10:33:08.515Z,46.53
2016-07-31T10:34:08.520Z,46.33
2016-07-31T10:35:09.234Z,46.53
2016-07-31T10:36:09.472Z,46.43
2016-07-31T10:37:09.258Z,46.53
2016-07-31T10:38:09.358Z,46.43
2016-07-31T10:39:09.262Z,47.3
2016-07-31T10:40:09.267Z,46.92
2016-07-31T10:41:09.275Z,47.02
2016-07-31T10:42:09.282Z,47.02
2016-07-31T10:43:09.288Z,47.02
2016-07-31T10:44:08.587Z,46.92
2016-07-31T10:45:09.304Z,47.5
2016-07-31T10:46:09.315Z,47.3
2016-07-31T10:47:08.611Z,47.5
2016-07-31T10:48:09.323Z,47.6
2016-07-31T10:49:09.829Z,47.69
2016-07-31T10:50:08.631Z,47.4
2016-07-31T10:51:08.684Z,48.27
2016-07-31T10:52:09.427Z,47.79
2016-07-31T10:53:08.650Z,47.69
2016-07-31T10:54:08.663Z,47.79
2016-07-31T10:55:09.370Z,47.6
2016-07-31T10:56:09.379Z,48.08
2016-07-31T10:57:08.678Z,47.69
2016-07-31T10:58:08.690Z,48.18
2016-07-31T10:59:09.398Z,47.69
2016-07-31T11:00:10.506Z,47.69
2016-07-31T11:01:09.414Z,47.4
2016-07-31T11:02:09.411Z,47.5
2016-07-31T11:03:08.719Z,47.4
2016-07-31T11:04:09.437Z,47.6
2016-07-31T11:05:08.732Z,48.08
2016-07-31T11:06:09.445Z,48.27
2016-07-31T11:07:08.744Z,48.47
2016-07-31T11:08:09.460Z,47.5
2016-07-31T11:09:09.466Z,48.08
2016-07-31T11:10:09.472Z,48.37
2016-07-31T11:11:09.481Z,48.37
2016-07-31T11:12:09.494Z,47.79
2016-07-31T11:13:10.595Z,47.89
2016-07-31T11:14:08.793Z,48.08
2016-07-31T11:15:08.801Z,48.08
2016-07-31T11:16:08.807Z,48.47
2016-07-31T11:17:09.570Z,47.89
2016-07-31T11:18:09.524Z,48.08
2016-07-31T11:19:08.825Z,48.08
2016-07-31T11:20:08.884Z,48.47
2016-07-31T11:21:08.843Z,48.08
2016-07-31T11:22:08.895Z,47.98
2016-07-31T11:23:08.853Z,48.08
2016-07-31T11:24:08.863Z,48.18
2016-07-31T11:25:09.572Z,48.66
2016-07-31T11:26:08.876Z,48.27
2016-07-31T11:27:08.878Z,48.27
2016-07-31T11:28:09.589Z,48.37
2016-07-31T11:29:09.600Z,48.66
2016-07-31T11:30:09.616Z,48.57
2016-07-31T11:31:09.612Z,48.66
2016-07-31T11:32:09.618Z,48.76
2016-07-31T11:33:09.825Z,48.66
2016-07-31T11:34:08.923Z,48.37
2016-07-31T11:35:09.638Z,48.74
2016-07-31T11:36:09.646Z,48.95
2016-07-31T11:37:09.649Z,48.74
2016-07-31T11:38:09.660Z,48.95
2016-07-31T11:39:09.665Z,48.64
2016-07-31T11:40:08.967Z,48.76
2016-07-31T11:41:08.985Z,48.47
2016-07-31T11:42:09.686Z,48.57
2016-07-31T11:43:09.693Z,49.44
2016-07-31T11:44:10.302Z,49.15
2016-07-31T11:45:09.706Z,49.02
2016-07-31T11:46:09.256Z,49.32
2016-07-31T11:47:09.014Z,49.41
2016-07-31T11:48:09.725Z,49.02
2016-07-31T11:49:09.736Z,48.64
2016-07-31T11:50:09.741Z,49.34
2016-07-31T11:51:09.750Z,49.32
2016-07-31T11:52:09.750Z,49.41
2016-07-31T11:53:09.761Z,49.32
2016-07-31T11:54:09.772Z,48.74
2016-07-31T11:55:10.675Z,48.95
2016-07-31T11:56:09.075Z,49.32
2016-07-31T11:57:09.730Z,49.22
2016-07-31T11:58:09.089Z,49.12
2016-07-31T11:59:09.803Z,49.12
2016-07-31T12:00:09.102Z,49.12
2016-07-31T12:01:09.107Z,49.7
2016-07-31T12:02:09.823Z,49.24
2016-07-31T12:03:09.124Z,49.12
2016-07-31T12:04:09.129Z,49.22
2016-07-31T12:05:09.845Z,48.74
2016-07-31T12:06:10.504Z,49.51
2016-07-31T12:07:09.857Z,50.02
2016-07-31T12:08:10.264Z,49.61
2016-07-31T12:09:09.169Z,49.12
2016-07-31T12:10:09.170Z,49.34
2016-07-31T12:11:09.937Z,49.34
2016-07-31T12:12:09.892Z,48.95
2016-07-31T12:13:09.907Z,49.44
2016-07-31T12:14:09.908Z,49.34
2016-07-31T12:15:09.257Z,48.95
2016-07-31T12:16:09.927Z,49.24
2016-07-31T12:17:10.903Z,49.05
2016-07-31T12:18:09.937Z,49.24
2016-07-31T12:19:09.234Z,49.8
2016-07-31T12:20:09.946Z,49.73
2016-07-31T12:21:09.954Z,49.51
2016-07-31T12:22:09.306Z,49.54
2016-07-31T12:23:09.969Z,49.82
2016-07-31T12:24:09.270Z,49.8
2016-07-31T12:25:09.984Z,49.61
2016-07-31T12:26:10.231Z,49.51
2016-07-31T12:27:09.996Z,49.73
2016-07-31T12:28:10.004Z,49.82
2016-07-31T12:29:10.008Z,49.7
2016-07-31T12:30:09.311Z,49.8
2016-07-31T12:31:10.027Z,49.8
2016-07-31T12:32:09.379Z,49.8
2016-07-31T12:33:09.334Z,49.8
2016-07-31T12:34:10.050Z,49.7
2016-07-31T12:35:10.053Z,49.9
2016-07-31T12:36:10.068Z,49.7
2016-07-31T12:37:10.717Z,49.51
2016-07-31T12:38:09.371Z,49.7
2016-07-31T12:39:10.631Z,49.51
2016-07-31T12:40:10.138Z,49.99
2016-07-31T12:41:09.385Z,49.8
2016-07-31T12:42:10.114Z,49.7
2016-07-31T12:43:09.402Z,50.09
2016-07-31T12:44:09.406Z,49.82
2016-07-31T12:45:10.124Z,49.82
2016-07-31T12:46:10.130Z,49.8
2016-07-31T12:47:09.432Z,49.61
2016-07-31T12:48:09.435Z,49.9
2016-07-31T12:49:09.444Z,49.9
2016-07-31T12:50:11.257Z,49.7
2016-07-31T12:51:10.165Z,50.19
2016-07-31T12:52:10.171Z,50.09
2016-07-31T12:53:10.178Z,50.02
2016-07-31T12:54:09.479Z,50.19
2016-07-31T12:55:10.208Z,49.99
2016-07-31T12:56:09.495Z,50.12
2016-07-31T12:57:10.207Z,50.41
2016-07-31T12:58:10.212Z,50.29
2016-07-31T12:59:10.220Z,50.29
2016-07-31T13:00:09.530Z,50.29